.
Local / CommonContents

Fort Wayne - NE Ind.
U N D E R   C O N S T R U C T I O N

Northern Indiana (IWX) Radar

Latest IWX NEXRAD
Base Reflectivity



Latest IWX NEXRAD
Base Velocity

Indiana-Ohio Visible Satellite

For infrared and water vapor imagery, see Great Lakes - Midwest.

Current Conditions

Recent report from the Fort Wayne International Airport

Aug 21, 2019 - 10:54 AM EDT / 2019.08.21 1454 UTC


The skies are mostly cloudy. The temperature is 75.0 F (23.9 C) and the dew point is 68.0 F (20.0 C), giving a relative humidity of 78%. The barometric pressure is 29.99 in. Hg (1015 hPa) and rising. The wind is from the WNW (290 degrees) at 8 MPH (7 KT), and the visibility is 10 mile(s).

KFWA 211454Z 29007KT 10SM SCT017 BKN250 24/20 A2999 RMK AO2 SLP150 T02390200 51013
CoCoRaHS
IN-AL-39
A2 Web Hosting
Creative Commons License
GoDaddy
search engine by freefind advanced

loaded 2019-08-21 11:28:45 • last modified 2015-05-28 14:58:18
Privacy PolicyDisclaimer
• wx.awcolley.com is powered by PmWiki v.2002016 •
• all content (unless otherwise noted) © 2019 A W Colley